createdAt,value
2023-12-14T00:01:40.273Z,1.04
2023-12-14T00:04:07.088Z,1.06
2023-12-14T00:06:33.812Z,1.17
2023-12-14T00:09:00.530Z,1.12
2023-12-14T00:11:27.190Z,1.01
2023-12-14T00:13:53.897Z,1.04
2023-12-14T00:16:20.603Z,1.16
2023-12-14T00:18:47.339Z,1.60
2023-12-14T00:21:14.119Z,1.52
2023-12-14T00:23:40.756Z,1.43
2023-12-14T00:26:07.447Z,1.31
2023-12-14T00:28:34.788Z,1.51
2023-12-14T00:31:01.894Z,1.60
2023-12-14T00:33:28.850Z,1.67
2023-12-14T00:35:55.568Z,1.73
2023-12-14T00:38:22.224Z,1.86
2023-12-14T00:40:49.095Z,1.55
2023-12-14T00:43:15.806Z,1.42
2023-12-14T00:45:42.684Z,1.28
2023-12-14T00:48:09.574Z,1.34
2023-12-14T00:50:36.373Z,1.47
2023-12-14T00:53:03.464Z,1.78
2023-12-14T00:55:30.234Z,1.49
2023-12-14T00:57:57.310Z,1.63
2023-12-14T01:00:24.217Z,1.59
2023-12-14T01:02:50.987Z,1.49
2023-12-14T01:05:18.067Z,1.45
2023-12-14T01:07:45.037Z,1.40
2023-12-14T01:10:12.099Z,1.31
2023-12-14T01:12:38.898Z,1.21
2023-12-14T01:15:06.576Z,1.14
2023-12-14T01:17:35.539Z,1.17
2023-12-14T01:20:05.887Z,1.10
2023-12-14T01:22:32.835Z,1.05
2023-12-14T01:24:59.878Z,1.15
2023-12-14T01:27:26.906Z,1.08
2023-12-14T01:29:53.584Z,1.31
2023-12-14T01:32:20.258Z,1.19
2023-12-14T01:34:47.038Z,1.43
2023-12-14T01:37:13.708Z,1.60
2023-12-14T01:39:40.375Z,1.69
2023-12-14T01:42:07.046Z,2.22
2023-12-14T01:44:33.746Z,2.55
2023-12-14T01:47:00.467Z,2.64
2023-12-14T01:49:27.117Z,2.92
2023-12-14T01:51:53.806Z,2.85
2023-12-14T01:54:20.483Z,2.67
2023-12-14T01:56:47.181Z,2.90
2023-12-14T01:59:14.333Z,3.11
2023-12-14T02:01:45.409Z,2.95
2023-12-14T02:04:13.972Z,2.93
2023-12-14T02:06:41.324Z,2.62
2023-12-14T02:09:08.012Z,2.50
2023-12-14T02:11:34.782Z,2.37
2023-12-14T02:14:09.711Z,2.68
2023-12-14T02:16:36.693Z,2.47
2023-12-14T02:19:03.445Z,2.51
2023-12-14T02:21:30.146Z,2.59
2023-12-14T02:23:57.049Z,2.52
2023-12-14T02:26:23.815Z,2.37
2023-12-14T02:28:50.934Z,2.49
2023-12-14T02:31:19.786Z,1.98
2023-12-14T02:33:46.599Z,2.12
2023-12-14T02:36:13.277Z,2.00
2023-12-14T02:38:40.072Z,1.99
2023-12-14T02:41:06.924Z,2.15
2023-12-14T02:43:33.685Z,2.15
2023-12-14T02:46:00.359Z,2.38
2023-12-14T02:48:27.102Z,2.48
2023-12-14T02:50:53.826Z,2.60
2023-12-14T02:53:20.533Z,2.65
2023-12-14T02:55:47.902Z,2.62
2023-12-14T02:58:14.745Z,2.39
2023-12-14T03:00:41.449Z,2.32
2023-12-14T03:03:08.174Z,2.48
2023-12-14T03:05:34.891Z,2.49
2023-12-14T03:08:01.599Z,2.65
2023-12-14T03:10:28.307Z,2.63
2023-12-14T03:12:54.965Z,2.70
2023-12-14T03:15:21.719Z,2.48
2023-12-14T03:17:48.397Z,2.32
2023-12-14T03:20:15.157Z,2.44
2023-12-14T03:22:42.068Z,2.13
2023-12-14T03:25:10.581Z,2.32
2023-12-14T03:27:37.439Z,2.43
2023-12-14T03:30:04.585Z,2.30
2023-12-14T03:32:31.373Z,2.22
2023-12-14T03:34:58.120Z,2.26
2023-12-14T03:37:24.803Z,2.21
2023-12-14T03:39:51.562Z,2.31
2023-12-14T03:42:18.322Z,2.15
2023-12-14T03:44:45.094Z,2.48
2023-12-14T03:47:11.799Z,2.21
2023-12-14T03:49:39.238Z,2.36
2023-12-14T03:52:06.324Z,1.98
2023-12-14T03:54:33.033Z,1.87
2023-12-14T03:56:59.713Z,1.66
2023-12-14T03:59:26.390Z,1.58
2023-12-14T04:01:53.120Z,1.33
2023-12-14T04:04:20.247Z,1.48
2023-12-14T04:06:46.941Z,1.27
2023-12-14T04:09:13.710Z,1.39
2023-12-14T04:11:40.452Z,1.41
2023-12-14T04:14:27.177Z,1.53
2023-12-14T04:16:53.854Z,1.43
2023-12-14T04:19:30.400Z,1.64
2023-12-14T04:21:57.097Z,1.53
2023-12-14T04:24:23.787Z,1.72
2023-12-14T04:26:50.496Z,1.54
2023-12-14T04:29:17.289Z,1.70
2023-12-14T04:31:44.026Z,1.64
2023-12-14T04:34:10.914Z,1.73
2023-12-14T04:36:37.608Z,1.81
2023-12-14T04:39:04.381Z,2.00
2023-12-14T04:41:31.087Z,2.08
2023-12-14T04:43:57.788Z,2.11
2023-12-14T04:46:25.301Z,1.92
2023-12-14T04:48:52.018Z,2.10
2023-12-14T04:51:18.678Z,2.30
2023-12-14T04:53:45.319Z,2.50
2023-12-14T04:56:13.245Z,2.53
2023-12-14T04:58:41.237Z,2.46
2023-12-14T05:01:09.230Z,2.32
2023-12-14T05:03:36.563Z,2.24
2023-12-14T05:06:03.344Z,2.20
2023-12-14T05:08:30.030Z,2.12
2023-12-14T05:10:56.761Z,2.11
2023-12-14T05:13:23.492Z,1.86
2023-12-14T05:15:50.151Z,1.55
2023-12-14T05:18:16.877Z,1.61
2023-12-14T05:20:43.569Z,1.62
2023-12-14T05:23:10.246Z,1.68
2023-12-14T05:25:36.991Z,1.55
2023-12-14T05:28:04.086Z,1.40
2023-12-14T05:30:31.415Z,1.37
2023-12-14T05:32:58.371Z,1.42
2023-12-14T05:35:25.141Z,1.44
2023-12-14T05:37:52.434Z,1.25
2023-12-14T05:40:19.439Z,1.30
2023-12-14T05:42:46.612Z,1.31
2023-12-14T05:45:13.273Z,1.28
2023-12-14T05:47:40.284Z,1.47
2023-12-14T05:50:07.438Z,1.40
2023-12-14T05:52:34.486Z,1.61
2023-12-14T05:55:04.785Z,1.38
2023-12-14T05:57:32.089Z,1.68
2023-12-14T05:59:58.873Z,1.64
2023-12-14T06:02:25.737Z,1.70
2023-12-14T06:04:52.441Z,1.60
2023-12-14T06:07:19.222Z,1.85
2023-12-14T06:09:45.903Z,1.83
2023-12-14T06:12:12.543Z,1.82
2023-12-14T06:14:39.198Z,1.76
2023-12-14T06:17:05.880Z,1.87
2023-12-14T06:19:32.659Z,1.81
2023-12-14T06:21:59.651Z,1.95
2023-12-14T06:24:26.434Z,1.88
2023-12-14T06:26:53.210Z,1.75
2023-12-14T06:29:19.977Z,1.82
2023-12-14T06:31:47.319Z,1.90
2023-12-14T06:34:14.092Z,1.78
2023-12-14T06:36:45.491Z,1.72
2023-12-14T06:39:12.980Z,1.65
2023-12-14T06:41:40.167Z,1.61
2023-12-14T06:44:08.066Z,1.60
2023-12-14T06:46:34.949Z,6.23
2023-12-14T06:49:02.282Z,3.66
2023-12-14T06:51:29.128Z,7.80
2023-12-14T06:53:55.836Z,12.14
2023-12-14T06:56:22.674Z,11.23
2023-12-14T06:58:49.503Z,5.29
2023-12-14T07:01:19.195Z,3.95
2023-12-14T07:03:46.807Z,2.55
2023-12-14T07:06:18.505Z,2.49
2023-12-14T07:08:45.587Z,2.18
2023-12-14T07:11:13.916Z,2.26
2023-12-14T07:13:41.440Z,2.36
2023-12-14T07:16:10.380Z,2.45
2023-12-14T07:18:38.030Z,2.33
2023-12-14T07:21:06.303Z,2.22
2023-12-14T07:23:33.130Z,2.25
2023-12-14T07:26:02.417Z,2.32
2023-12-14T07:28:30.740Z,2.52
2023-12-14T07:30:57.572Z,2.46
2023-12-14T07:33:25.704Z,2.51
2023-12-14T07:35:52.517Z,2.31
2023-12-14T07:38:19.494Z,2.55
2023-12-14T07:40:46.338Z,2.35
2023-12-14T07:43:13.241Z,2.59
2023-12-14T07:45:39.882Z,2.47
2023-12-14T07:48:06.795Z,2.74
2023-12-14T07:50:33.521Z,2.81
2023-12-14T07:53:00.332Z,2.65
2023-12-14T07:55:27.073Z,2.64
2023-12-14T07:57:53.726Z,2.88
2023-12-14T08:00:20.441Z,3.24
2023-12-14T08:02:47.133Z,3.67
2023-12-14T08:05:13.937Z,3.59
2023-12-14T08:07:40.671Z,3.29
2023-12-14T08:10:08.513Z,3.01
2023-12-14T08:12:35.452Z,2.80
2023-12-14T08:15:02.293Z,2.67
2023-12-14T08:17:29.103Z,2.47
2023-12-14T08:19:55.993Z,2.43
2023-12-14T08:22:22.855Z,2.12
2023-12-14T08:24:49.706Z,2.03
2023-12-14T08:27:16.622Z,1.91
2023-12-14T08:29:43.303Z,2.20
2023-12-14T08:32:09.966Z,2.36
2023-12-14T08:34:36.663Z,2.09
2023-12-14T08:37:03.505Z,2.13
2023-12-14T08:39:30.221Z,2.31
2023-12-14T08:41:56.872Z,2.39
2023-12-14T08:44:23.585Z,2.34
2023-12-14T08:46:51.175Z,2.30
2023-12-14T08:49:17.892Z,2.09
2023-12-14T08:51:44.636Z,2.11
2023-12-14T08:54:11.345Z,2.25
2023-12-14T08:56:37.971Z,2.07
2023-12-14T08:59:04.642Z,1.88
2023-12-14T09:01:31.393Z,2.05
2023-12-14T09:03:58.139Z,2.10
2023-12-14T09:06:24.891Z,2.13
2023-12-14T09:08:51.541Z,1.88
2023-12-14T09:11:18.279Z,1.90
2023-12-14T09:13:44.974Z,1.88
2023-12-14T09:16:11.664Z,1.67
2023-12-14T09:18:38.357Z,1.60
2023-12-14T09:21:05.422Z,1.57
2023-12-14T09:23:32.112Z,1.61
2023-12-14T09:25:58.870Z,1.63
2023-12-14T09:28:26.248Z,1.43
2023-12-14T09:30:53.084Z,1.21
2023-12-14T09:33:19.950Z,1.43
2023-12-14T09:35:46.697Z,1.82
2023-12-14T09:38:13.394Z,1.19
2023-12-14T09:40:40.181Z,1.25
2023-12-14T09:43:08.898Z,1.31
2023-12-14T09:45:37.100Z,1.26
2023-12-14T09:48:04.279Z,1.23
2023-12-14T09:50:32.933Z,1.30
2023-12-14T09:52:59.674Z,1.68
2023-12-14T09:55:26.409Z,1.71
2023-12-14T09:57:53.066Z,1.32
2023-12-14T10:00:39.996Z,1.19
2023-12-14T10:03:27.281Z,1.31
2023-12-14T10:05:58.213Z,1.32
2023-12-14T10:08:26.516Z,1.20
2023-12-14T10:10:55.158Z,0.99
2023-12-14T10:13:37.887Z,1.02
2023-12-14T10:16:04.836Z,0.97
2023-12-14T10:18:34.892Z,1.27
2023-12-14T10:21:01.831Z,1.28
2023-12-14T10:23:29.024Z,1.36
2023-12-14T10:25:55.690Z,1.54
2023-12-14T10:28:23.476Z,1.56
2023-12-14T10:30:50.189Z,1.31
2023-12-14T10:33:16.961Z,1.26
2023-12-14T10:35:43.638Z,1.30
2023-12-14T10:38:12.553Z,1.32
2023-12-14T10:40:39.345Z,1.35
2023-12-14T10:43:08.592Z,1.50
2023-12-14T10:45:35.665Z,1.46
2023-12-14T10:48:02.900Z,1.48
2023-12-14T10:50:32.069Z,1.49
2023-12-14T10:53:00.990Z,1.54
2023-12-14T10:55:45.794Z,1.51
2023-12-14T10:58:13.010Z,1.71
2023-12-14T11:00:39.922Z,1.92
2023-12-14T11:03:06.781Z,1.97
2023-12-14T11:05:35.516Z,1.60
2023-12-14T11:08:03.636Z,1.70
2023-12-14T11:10:39.870Z,1.65
2023-12-14T11:13:10.265Z,1.79
2023-12-14T11:15:38.024Z,2.04
2023-12-14T11:18:10.650Z,2.14
2023-12-14T11:20:46.357Z,2.23
2023-12-14T11:23:17.518Z,1.96
2023-12-14T11:25:46.787Z,2.21
2023-12-14T11:28:15.041Z,1.89
2023-12-14T11:30:54.394Z,1.99
2023-12-14T11:33:23.915Z,2.11
2023-12-14T11:35:52.393Z,1.96
2023-12-14T11:38:21.306Z,2.06
2023-12-14T11:40:49.145Z,1.96
2023-12-14T11:43:16.119Z,2.19
2023-12-14T11:45:44.802Z,2.02
2023-12-14T11:48:13.297Z,2.25
2023-12-14T11:50:44.123Z,2.34
2023-12-14T11:53:11.986Z,2.41
2023-12-14T11:55:41.418Z,2.47
2023-12-14T11:58:08.813Z,2.33
2023-12-14T12:00:36.313Z,2.27
2023-12-14T12:03:09.627Z,2.13
2023-12-14T12:05:38.590Z,2.29
2023-12-14T12:08:05.709Z,2.10
2023-12-14T12:10:33.298Z,2.05
2023-12-14T12:13:04.591Z,2.06
2023-12-14T12:15:32.835Z,2.14
2023-12-14T12:18:00.304Z,2.17
2023-12-14T12:20:27.149Z,2.06
2023-12-14T12:22:53.843Z,1.93
2023-12-14T12:25:20.633Z,1.97
2023-12-14T12:27:47.596Z,2.04
2023-12-14T12:30:14.465Z,2.18
2023-12-14T12:32:41.160Z,2.19
2023-12-14T12:35:08.170Z,2.08
2023-12-14T12:37:35.478Z,2.33
2023-12-14T12:40:02.258Z,2.51
2023-12-14T12:42:28.925Z,2.49
2023-12-14T12:44:55.582Z,2.56
2023-12-14T12:47:22.281Z,2.90
2023-12-14T12:49:49.143Z,2.77
2023-12-14T12:52:15.870Z,2.30
2023-12-14T12:54:42.568Z,2.16
2023-12-14T12:57:09.253Z,2.11
2023-12-14T12:59:35.993Z,1.87
2023-12-14T13:02:02.737Z,3.99
2023-12-14T13:04:29.388Z,3.19
2023-12-14T13:06:56.093Z,2.60
2023-12-14T13:09:22.805Z,1.99
2023-12-14T13:11:50.494Z,1.89
2023-12-14T13:14:17.345Z,1.72
2023-12-14T13:16:44.547Z,1.48
2023-12-14T13:19:11.308Z,1.68
2023-12-14T13:21:38.067Z,1.58
2023-12-14T13:24:04.800Z,1.42
2023-12-14T13:26:31.508Z,1.47
2023-12-14T13:28:58.223Z,1.42
2023-12-14T13:31:24.864Z,1.74
2023-12-14T13:33:51.844Z,1.59
2023-12-14T13:36:18.501Z,1.41
2023-12-14T13:38:45.223Z,1.24
2023-12-14T13:41:12.210Z,1.11
2023-12-14T13:43:38.954Z,1.20
2023-12-14T13:46:17.766Z,2.21
2023-12-14T13:48:47.807Z,2.29
2023-12-14T13:51:14.646Z,1.22
2023-12-14T13:53:41.320Z,1.27
2023-12-14T13:56:08.469Z,1.32
2023-12-14T13:58:35.199Z,1.14
2023-12-14T14:01:01.966Z,1.18
2023-12-14T14:03:28.852Z,1.23
2023-12-14T14:05:55.755Z,1.20
2023-12-14T14:08:22.515Z,1.20
2023-12-14T14:10:49.351Z,1.27
2023-12-14T14:13:16.044Z,1.26
2023-12-14T14:15:42.703Z,1.04
2023-12-14T14:18:09.426Z,1.13
2023-12-14T14:20:36.102Z,1.24
2023-12-14T14:23:02.781Z,1.13
2023-12-14T14:25:29.473Z,1.18
2023-12-14T14:27:56.141Z,1.23
2023-12-14T14:30:22.898Z,1.04
2023-12-14T14:32:49.619Z,1.34
2023-12-14T14:35:16.579Z,1.49
2023-12-14T14:37:43.691Z,1.51
2023-12-14T14:40:10.523Z,1.28
2023-12-14T14:42:37.484Z,1.22
2023-12-14T14:45:06.787Z,1.45
2023-12-14T14:47:35.716Z,1.46
2023-12-14T14:50:03.605Z,1.55
2023-12-14T14:52:30.487Z,1.47
2023-12-14T14:54:57.157Z,1.26
2023-12-14T14:57:24.025Z,1.22
2023-12-14T14:59:50.674Z,1.26
2023-12-14T15:02:17.440Z,1.08
2023-12-14T15:04:44.235Z,1.27
2023-12-14T15:07:10.975Z,1.22
2023-12-14T15:09:37.610Z,1.22
2023-12-14T15:12:04.301Z,1.58
2023-12-14T15:14:31.047Z,1.37
2023-12-14T15:16:58.428Z,1.14
2023-12-14T15:19:25.181Z,1.30
2023-12-14T15:21:51.854Z,1.37
2023-12-14T15:24:18.566Z,1.64
2023-12-14T15:26:45.582Z,1.63
2023-12-14T15:29:12.376Z,1.61
2023-12-14T15:31:39.098Z,1.73
2023-12-14T15:34:05.939Z,2.33
2023-12-14T15:36:32.661Z,2.00
2023-12-14T15:39:01.787Z,2.03
2023-12-14T15:41:29.748Z,1.71
2023-12-14T15:43:56.646Z,1.69
2023-12-14T15:46:23.353Z,1.83
2023-12-14T15:48:50.032Z,1.55
2023-12-14T15:51:16.722Z,1.57
2023-12-14T15:53:43.395Z,1.96
2023-12-14T15:56:10.295Z,2.12
2023-12-14T15:58:37.032Z,2.23
2023-12-14T16:01:03.772Z,2.11
2023-12-14T16:03:30.560Z,2.29
2023-12-14T16:05:57.390Z,2.40
2023-12-14T16:08:24.187Z,2.27
2023-12-14T16:10:50.918Z,2.02
2023-12-14T16:13:17.658Z,2.06
2023-12-14T16:15:44.353Z,1.89
2023-12-14T16:18:11.089Z,1.76
2023-12-14T16:20:37.992Z,1.63
2023-12-14T16:23:04.740Z,1.80
2023-12-14T16:25:31.459Z,1.76
2023-12-14T16:27:58.138Z,2.19
2023-12-14T16:30:27.855Z,1.86
2023-12-14T16:32:54.584Z,1.82
2023-12-14T16:35:21.323Z,1.94
2023-12-14T16:37:48.107Z,1.95
2023-12-14T16:40:14.990Z,15.05
2023-12-14T16:42:41.624Z,3.93
2023-12-14T16:45:08.869Z,2.80
2023-12-14T16:47:35.536Z,3.46
2023-12-14T16:50:02.297Z,4.75
2023-12-14T16:52:29.109Z,7.49
2023-12-14T16:54:55.789Z,11.04
2023-12-14T16:57:22.491Z,20.66
2023-12-14T16:59:49.223Z,13.69
2023-12-14T17:02:15.997Z,6.00
2023-12-14T17:04:42.885Z,6.64
2023-12-14T17:07:09.705Z,5.50
2023-12-14T17:09:36.414Z,4.23
2023-12-14T17:12:03.647Z,3.77
2023-12-14T17:14:30.352Z,4.05
2023-12-14T17:16:57.077Z,4.33
2023-12-14T17:19:23.770Z,5.61
2023-12-14T17:21:53.470Z,5.57
2023-12-14T17:24:20.263Z,4.32
2023-12-14T17:26:47.021Z,4.78
2023-12-14T17:29:13.754Z,4.09
2023-12-14T17:31:40.471Z,3.47
2023-12-14T17:34:07.236Z,2.99
2023-12-14T17:36:33.964Z,2.64
2023-12-14T17:39:03.529Z,2.62
2023-12-14T17:41:31.826Z,2.68
2023-12-14T17:43:58.524Z,4.00
2023-12-14T17:46:25.244Z,30.45
2023-12-14T17:48:51.954Z,9.34
2023-12-14T17:51:18.706Z,5.97
2023-12-14T17:53:45.365Z,6.68
2023-12-14T17:56:12.105Z,7.31
2023-12-14T17:58:45.194Z,5.77
2023-12-14T18:01:14.519Z,5.98
2023-12-14T18:03:41.275Z,5.88
2023-12-14T18:06:08.235Z,5.81
2023-12-14T18:08:35.990Z,6.83
2023-12-14T18:11:02.754Z,7.29
2023-12-14T18:13:29.450Z,7.31
2023-12-14T18:15:56.219Z,8.28
2023-12-14T18:18:23.384Z,7.96
2023-12-14T18:20:50.260Z,6.45
2023-12-14T18:23:18.390Z,6.82
2023-12-14T18:25:45.152Z,6.44
2023-12-14T18:28:11.852Z,5.79
2023-12-14T18:30:38.540Z,8.35
2023-12-14T18:33:05.313Z,6.04
2023-12-14T18:35:32.000Z,5.65
2023-12-14T18:37:58.725Z,5.86
2023-12-14T18:40:25.542Z,5.41
2023-12-14T18:42:53.284Z,5.91
2023-12-14T18:45:21.158Z,5.05
2023-12-14T18:47:48.115Z,6.22
2023-12-14T18:50:16.023Z,4.54
2023-12-14T18:52:42.795Z,3.74
2023-12-14T18:55:09.536Z,3.50
2023-12-14T18:57:37.867Z,3.49
2023-12-14T19:00:05.301Z,3.77
2023-12-14T19:02:31.993Z,3.71
2023-12-14T19:04:58.773Z,3.18
2023-12-14T19:07:28.068Z,2.39
2023-12-14T19:09:57.483Z,2.25
2023-12-14T19:12:24.215Z,2.22
2023-12-14T19:14:50.903Z,1.92
2023-12-14T19:17:17.693Z,1.44
2023-12-14T19:19:45.624Z,1.57
2023-12-14T19:22:13.783Z,2.22
2023-12-14T19:24:40.435Z,2.27
2023-12-14T19:27:07.143Z,2.29
2023-12-14T19:29:34.118Z,2.37
2023-12-14T19:32:00.876Z,2.64
2023-12-14T19:34:29.793Z,2.76
2023-12-14T19:36:56.552Z,3.07
2023-12-14T19:39:23.202Z,2.93
2023-12-14T19:41:50.837Z,3.03
2023-12-14T19:44:17.571Z,3.09
2023-12-14T19:46:44.296Z,2.92
2023-12-14T19:49:16.280Z,3.32
2023-12-14T19:51:42.948Z,3.31
2023-12-14T19:54:12.454Z,3.40
2023-12-14T19:56:42.319Z,4.16
2023-12-14T19:59:09.036Z,3.22
2023-12-14T20:01:35.709Z,3.15
2023-12-14T20:04:03.227Z,3.30
2023-12-14T20:06:29.918Z,3.92
2023-12-14T20:08:56.559Z,4.25
2023-12-14T20:11:23.301Z,4.46
2023-12-14T20:13:50.140Z,4.31
2023-12-14T20:16:16.901Z,4.20
2023-12-14T20:18:43.669Z,4.83
2023-12-14T20:21:10.469Z,4.80
2023-12-14T20:23:37.162Z,4.47
2023-12-14T20:26:04.602Z,4.57
2023-12-14T20:28:31.402Z,5.29
2023-12-14T20:30:58.124Z,5.84
2023-12-14T20:33:24.895Z,7.13
2023-12-14T20:35:53.876Z,5.73
2023-12-14T20:38:20.563Z,5.36
2023-12-14T20:40:47.333Z,5.60
2023-12-14T20:43:14.065Z,6.56
2023-12-14T20:45:40.827Z,8.93
2023-12-14T20:48:09.932Z,7.94
2023-12-14T20:50:38.699Z,6.12
2023-12-14T20:53:05.493Z,5.62
2023-12-14T20:55:32.296Z,4.84
2023-12-14T20:57:58.979Z,4.45
2023-12-14T21:00:25.934Z,4.63
2023-12-14T21:02:52.723Z,4.96
2023-12-14T21:05:21.754Z,4.79
2023-12-14T21:07:48.699Z,4.49
2023-12-14T21:10:15.449Z,4.29
2023-12-14T21:12:42.133Z,4.77
2023-12-14T21:15:09.191Z,4.36
2023-12-14T21:17:36.684Z,4.58
2023-12-14T21:20:04.630Z,4.88
2023-12-14T21:22:32.015Z,4.65
2023-12-14T21:24:58.703Z,4.70
2023-12-14T21:27:25.358Z,4.32
2023-12-14T21:29:52.041Z,4.57
2023-12-14T21:32:18.751Z,4.88
2023-12-14T21:34:45.419Z,5.06
2023-12-14T21:37:12.123Z,4.26
2023-12-14T21:39:38.809Z,4.72
2023-12-14T21:42:05.749Z,3.89
2023-12-14T21:44:33.020Z,3.80
2023-12-14T21:46:59.765Z,4.14
2023-12-14T21:49:26.763Z,5.08
2023-12-14T21:51:53.565Z,4.25
2023-12-14T21:54:22.635Z,3.93
2023-12-14T21:56:49.308Z,3.81
2023-12-14T21:59:15.988Z,3.34
2023-12-14T22:01:42.700Z,3.51
2023-12-14T22:04:09.357Z,3.18
2023-12-14T22:06:36.030Z,3.18
2023-12-14T22:09:02.709Z,3.12
2023-12-14T22:11:29.456Z,3.17
2023-12-14T22:13:56.242Z,3.26
2023-12-14T22:16:22.949Z,3.09
2023-12-14T22:18:49.677Z,3.00
2023-12-14T22:21:16.540Z,3.48
2023-12-14T22:23:43.188Z,3.18
2023-12-14T22:26:09.892Z,2.97
2023-12-14T22:28:36.570Z,2.97
2023-12-14T22:31:03.288Z,3.14
2023-12-14T22:33:30.087Z,3.17
2023-12-14T22:35:56.882Z,3.85
2023-12-14T22:38:23.585Z,4.52
2023-12-14T22:40:50.321Z,4.06
2023-12-14T22:43:16.995Z,3.63
2023-12-14T22:45:43.646Z,3.37
2023-12-14T22:48:10.464Z,3.46
2023-12-14T22:50:37.322Z,3.31
2023-12-14T22:53:09.637Z,3.30
2023-12-14T22:55:38.848Z,3.00
2023-12-14T22:58:05.544Z,2.79
2023-12-14T23:00:32.241Z,3.11
2023-12-14T23:02:59.105Z,3.31
2023-12-14T23:05:25.762Z,3.20
2023-12-14T23:07:52.538Z,3.04
2023-12-14T23:10:19.216Z,2.88
2023-12-14T23:12:45.889Z,2.83
2023-12-14T23:15:12.578Z,2.81
2023-12-14T23:17:39.593Z,2.83
2023-12-14T23:20:07.022Z,2.84
2023-12-14T23:22:33.721Z,3.18
2023-12-14T23:25:00.389Z,3.44
2023-12-14T23:27:27.048Z,3.67
2023-12-14T23:29:53.749Z,3.29
2023-12-14T23:32:20.469Z,3.20
2023-12-14T23:34:47.142Z,3.36
2023-12-14T23:37:13.819Z,3.29
2023-12-14T23:39:40.531Z,3.10
2023-12-14T23:42:07.242Z,3.04
2023-12-14T23:44:34.415Z,3.21
2023-12-14T23:47:01.109Z,3.15
2023-12-14T23:49:28.077Z,2.93
2023-12-14T23:51:54.811Z,3.00
2023-12-14T23:54:21.473Z,2.89
2023-12-14T23:56:48.197Z,2.77
2023-12-14T23:59:15.098Z,2.73
